createdAt,value
2018-06-18T00:02:16.197Z,16.89
2018-06-18T00:04:44.205Z,17.02
2018-06-18T00:07:12.212Z,17.08
2018-06-18T00:09:40.238Z,16.99
2018-06-18T00:12:08.235Z,16.99
2018-06-18T00:14:36.238Z,16.84
2018-06-18T00:17:04.232Z,16.98
2018-06-18T00:19:32.224Z,17.02
2018-06-18T00:22:00.279Z,17.05
2018-06-18T00:24:28.299Z,17.15
2018-06-18T00:26:56.291Z,17.14
2018-06-18T00:29:24.720Z,17.19
2018-06-18T00:31:52.696Z,17.28
2018-06-18T00:34:20.707Z,17.18
2018-06-18T00:36:48.735Z,17.02
2018-06-18T00:39:16.757Z,17.07
2018-06-18T00:41:44.762Z,16.90
2018-06-18T00:44:12.752Z,16.89
2018-06-18T00:46:40.731Z,16.72
2018-06-18T00:49:08.716Z,16.83
2018-06-18T00:51:36.720Z,16.75
2018-06-18T00:54:04.832Z,16.93
2018-06-18T00:56:32.844Z,16.98
2018-06-18T00:59:00.860Z,17.00
2018-06-18T01:01:28.873Z,16.96
2018-06-18T01:03:56.897Z,16.92
2018-06-18T01:06:24.943Z,16.87
2018-06-18T01:08:52.969Z,16.84
2018-06-18T01:11:21.027Z,16.93
2018-06-18T01:13:48.996Z,16.89
2018-06-18T01:16:16.993Z,16.94
2018-06-18T01:18:44.985Z,16.93
2018-06-18T01:21:12.965Z,16.81
2018-06-18T01:23:50.652Z,16.76
2018-06-18T01:26:18.656Z,16.80
2018-06-18T01:28:46.685Z,16.71
2018-06-18T01:31:14.723Z,16.61
2018-06-18T01:33:42.729Z,16.59
2018-06-18T01:36:10.752Z,16.57
2018-06-18T01:38:38.784Z,16.61
2018-06-18T01:41:07.594Z,16.69
2018-06-18T01:43:35.580Z,16.78
2018-06-18T01:46:03.613Z,16.84
2018-06-18T01:48:31.632Z,16.77
2018-06-18T01:50:59.699Z,16.73
2018-06-18T01:53:27.701Z,16.72
2018-06-18T01:55:55.689Z,16.78
2018-06-18T01:58:23.792Z,16.88
2018-06-18T02:00:51.789Z,16.78
2018-06-18T02:03:19.793Z,16.68
2018-06-18T02:05:47.780Z,16.65
2018-06-18T02:08:15.834Z,16.74
2018-06-18T02:10:43.839Z,16.76
2018-06-18T02:13:11.876Z,16.85
2018-06-18T02:15:39.882Z,16.83
2018-06-18T02:18:07.905Z,16.87
2018-06-18T02:20:35.948Z,16.85
2018-06-18T02:23:03.936Z,16.70
2018-06-18T02:25:31.945Z,16.47
2018-06-18T02:28:05.449Z,16.54
2018-06-18T02:30:38.825Z,16.65
2018-06-18T02:33:12.217Z,16.67
2018-06-18T02:35:45.632Z,16.66
2018-06-18T02:38:19.530Z,16.71
2018-06-18T02:40:48.143Z,16.54
2018-06-18T02:43:17.545Z,16.59
2018-06-18T02:45:45.870Z,16.56
2018-06-18T02:48:14.006Z,16.68
2018-06-18T02:50:42.560Z,16.69
2018-06-18T02:53:10.567Z,16.57
2018-06-18T02:55:40.160Z,16.73
2018-06-18T02:58:08.167Z,16.69
2018-06-18T03:00:36.177Z,16.63
2018-06-18T03:03:04.205Z,16.60
2018-06-18T03:05:32.229Z,16.48
2018-06-18T03:08:00.225Z,16.50
2018-06-18T03:10:28.249Z,16.48
2018-06-18T03:12:56.254Z,16.54
2018-06-18T03:15:24.265Z,16.58
2018-06-18T03:17:52.256Z,16.56
2018-06-18T03:20:25.652Z,16.58
2018-06-18T03:22:58.954Z,16.63
2018-06-18T03:25:32.453Z,16.63
2018-06-18T03:28:05.940Z,16.59
2018-06-18T03:30:33.972Z,16.41
2018-06-18T03:33:01.969Z,16.49
2018-06-18T03:35:29.988Z,16.49
2018-06-18T03:37:58.989Z,16.50
2018-06-18T03:40:27.000Z,16.52
2018-06-18T03:42:55.009Z,16.56
2018-06-18T03:45:25.111Z,16.67
2018-06-18T03:47:54.216Z,16.55
2018-06-18T03:50:22.224Z,16.72
2018-06-18T03:52:50.749Z,16.60
2018-06-18T03:55:25.777Z,16.55
2018-06-18T03:57:53.911Z,16.63
2018-06-18T04:00:22.241Z,16.57
2018-06-18T04:02:58.021Z,16.53
2018-06-18T04:05:31.508Z,16.72
2018-06-18T04:08:01.931Z,16.74
2018-06-18T04:10:37.089Z,16.71
2018-06-18T04:13:05.527Z,16.80
2018-06-18T04:15:33.536Z,16.93
2018-06-18T04:18:01.621Z,16.98
2018-06-18T04:20:35.071Z,17.10
2018-06-18T04:23:03.112Z,17.14
2018-06-18T04:25:31.109Z,17.11
2018-06-18T04:27:59.106Z,17.17
2018-06-18T04:30:27.139Z,17.08
2018-06-18T04:32:55.141Z,17.08
2018-06-18T04:35:23.176Z,17.26
2018-06-18T04:37:51.314Z,17.30
2018-06-18T04:40:19.320Z,17.40
2018-06-18T04:42:52.696Z,17.42
2018-06-18T04:45:26.241Z,17.38
2018-06-18T04:47:59.613Z,17.39
2018-06-18T04:50:32.954Z,17.51
2018-06-18T04:53:00.967Z,17.63
2018-06-18T04:55:28.945Z,17.63
2018-06-18T04:57:57.012Z,17.78
2018-06-18T05:00:36.576Z,17.89
2018-06-18T05:03:04.594Z,18.06
2018-06-18T05:05:32.593Z,17.87
2018-06-18T05:08:16.348Z,18.08
2018-06-18T05:10:44.367Z,18.23
2018-06-18T05:13:12.385Z,18.14
2018-06-18T05:15:41.199Z,18.14
2018-06-18T05:18:09.218Z,18.28
2018-06-18T05:20:37.308Z,18.37
2018-06-18T05:23:09.501Z,18.47
2018-06-18T05:25:37.514Z,18.36
2018-06-18T05:28:05.790Z,18.57
2018-06-18T05:30:33.767Z,18.68
2018-06-18T05:33:01.756Z,18.74
2018-06-18T05:35:29.953Z,18.89
2018-06-18T05:38:02.578Z,18.79
2018-06-18T05:40:30.585Z,18.89
2018-06-18T05:42:58.620Z,19.04
2018-06-18T05:45:26.601Z,19.09
2018-06-18T05:47:54.759Z,18.97
2018-06-18T05:50:22.990Z,19.23
2018-06-18T05:52:51.149Z,19.34
2018-06-18T05:55:19.162Z,19.49
2018-06-18T05:57:47.189Z,19.41
2018-06-18T06:00:15.913Z,19.53
2018-06-18T06:02:43.976Z,19.75
2018-06-18T06:05:11.985Z,19.71
2018-06-18T06:07:39.987Z,19.66
2018-06-18T06:10:08.054Z,19.61
2018-06-18T06:12:36.245Z,19.71
2018-06-18T06:15:04.245Z,19.72
2018-06-18T06:17:32.277Z,19.85
2018-06-18T06:20:00.308Z,20.04
2018-06-18T06:22:28.373Z,20.12
2018-06-18T06:24:56.358Z,20.26
2018-06-18T06:27:24.500Z,20.34
2018-06-18T06:29:52.537Z,20.29
2018-06-18T06:32:20.536Z,20.47
2018-06-18T06:34:54.045Z,20.42
2018-06-18T06:37:22.200Z,20.41
2018-06-18T06:39:50.253Z,20.64
2018-06-18T06:42:18.906Z,20.80
2018-06-18T06:44:47.102Z,21.06
2018-06-18T06:47:15.204Z,21.17
2018-06-18T06:49:43.393Z,21.32
2018-06-18T06:52:11.423Z,21.73
2018-06-18T06:54:39.428Z,22.35
2018-06-18T06:57:08.237Z,22.55
2018-06-18T06:59:36.314Z,22.96
2018-06-18T07:02:05.345Z,23.19
2018-06-18T07:04:33.453Z,23.27
2018-06-18T07:07:01.468Z,22.68
2018-06-18T07:09:29.496Z,22.09
2018-06-18T07:11:57.589Z,21.56
2018-06-18T07:14:25.644Z,21.18
2018-06-18T07:19:33.036Z,21.37
2018-06-18T07:22:01.112Z,21.50
2018-06-18T07:24:29.457Z,21.65
2018-06-18T07:26:57.496Z,21.57
2018-06-18T07:29:25.858Z,21.53
2018-06-18T07:31:53.948Z,21.66
2018-06-18T07:34:22.028Z,21.70
2018-06-18T07:36:50.036Z,21.43
2018-06-18T07:39:18.180Z,21.34
2018-06-18T07:41:46.163Z,21.30
2018-06-18T07:44:14.210Z,21.45
2018-06-18T07:46:42.284Z,21.66
2018-06-18T07:49:10.357Z,21.76
2018-06-18T07:51:38.428Z,22.22
2018-06-18T07:54:06.417Z,22.54
2018-06-18T07:56:34.516Z,22.65
2018-06-18T07:59:02.676Z,22.30
2018-06-18T08:01:30.713Z,22.18
2018-06-18T08:03:58.701Z,22.03
2018-06-18T08:06:26.687Z,21.57
2018-06-18T08:08:54.729Z,21.47
2018-06-18T08:11:22.752Z,21.12
2018-06-18T08:13:50.753Z,21.10
2018-06-18T08:16:18.765Z,20.89
2018-06-18T08:18:46.790Z,20.82
2018-06-18T08:21:14.788Z,20.41
2018-06-18T08:23:42.866Z,20.37
2018-06-18T08:26:10.820Z,20.10
2018-06-18T08:28:38.837Z,20.21
2018-06-18T08:31:06.872Z,19.83
2018-06-18T08:33:34.914Z,19.89
2018-06-18T08:36:02.928Z,19.84
2018-06-18T08:38:30.920Z,20.38
2018-06-18T08:40:58.905Z,20.58
2018-06-18T08:43:26.964Z,20.79
2018-06-18T08:45:55.018Z,21.11
2018-06-18T08:48:28.581Z,21.23
2018-06-18T08:52:00.903Z,21.63
2018-06-18T08:54:34.349Z,22.12
2018-06-18T08:57:07.928Z,22.58
2018-06-18T08:59:41.301Z,22.57
2018-06-18T09:02:09.396Z,22.57
2018-06-18T09:04:43.015Z,22.35
2018-06-18T09:07:11.022Z,22.33
2018-06-18T09:09:39.078Z,21.91
2018-06-18T09:12:07.106Z,21.46
2018-06-18T09:14:35.837Z,21.31
2018-06-18T09:17:03.865Z,21.44
2018-06-18T09:19:31.889Z,21.59
2018-06-18T09:21:59.907Z,21.54
2018-06-18T09:24:33.012Z,21.52
2018-06-18T09:27:06.494Z,21.52
2018-06-18T09:29:35.190Z,21.29
2018-06-18T09:32:03.277Z,21.42
2018-06-18T09:34:32.217Z,21.58
2018-06-18T09:37:00.215Z,21.39
2018-06-18T09:39:28.230Z,21.38
2018-06-18T09:41:56.302Z,21.39
2018-06-18T09:44:24.332Z,21.14
2018-06-18T09:46:52.358Z,21.15
2018-06-18T09:49:25.814Z,21.08
2018-06-18T09:51:59.209Z,20.93
2018-06-18T09:54:32.913Z,20.84
2018-06-18T09:57:06.397Z,20.67
2018-06-18T09:59:39.849Z,20.77
2018-06-18T10:02:15.031Z,20.83
2018-06-18T10:04:43.031Z,20.94
2018-06-18T10:07:11.052Z,21.25
2018-06-18T10:09:39.073Z,21.03
2018-06-18T10:12:07.084Z,21.27
2018-06-18T10:14:35.341Z,21.24
2018-06-18T10:17:03.348Z,20.86
2018-06-18T10:19:31.313Z,20.82
2018-06-18T10:21:59.345Z,20.80
2018-06-18T10:24:27.403Z,20.82
2018-06-18T10:26:55.328Z,20.85
2018-06-18T10:29:23.329Z,21.13
2018-06-18T10:31:51.348Z,21.04
2018-06-18T10:34:25.244Z,21.22
2018-06-18T10:36:58.572Z,21.12
2018-06-18T10:39:32.131Z,21.28
2018-06-18T10:42:05.692Z,21.23
2018-06-18T10:44:33.794Z,21.18
2018-06-18T10:47:01.948Z,21.43
2018-06-18T10:49:29.951Z,21.38
2018-06-18T10:51:57.947Z,21.49
2018-06-18T10:54:25.965Z,21.42
2018-06-18T10:56:54.046Z,21.36
2018-06-18T10:59:22.009Z,21.48
2018-06-18T11:01:50.015Z,21.74
2018-06-18T11:04:23.388Z,22.10
2018-06-18T11:06:51.396Z,22.44
2018-06-18T11:09:22.172Z,22.72
2018-06-18T11:11:51.412Z,22.98
2018-06-18T11:14:19.576Z,23.15
2018-06-18T11:16:53.335Z,22.74
2018-06-18T11:19:26.623Z,22.76
2018-06-18T11:21:59.952Z,22.67
2018-06-18T11:24:33.336Z,22.89
2018-06-18T11:27:01.368Z,22.72
2018-06-18T11:29:29.417Z,22.86
2018-06-18T11:31:57.477Z,23.20
2018-06-18T11:34:25.485Z,23.37
2018-06-18T11:36:53.562Z,23.66
2018-06-18T11:39:21.643Z,24.07
2018-06-18T11:41:49.638Z,24.36
2018-06-18T11:44:17.570Z,24.50
2018-06-18T11:46:45.595Z,24.74
2018-06-18T11:49:13.601Z,24.95
2018-06-18T11:51:41.719Z,25.02
2018-06-18T11:54:09.730Z,24.93
2018-06-18T11:56:37.833Z,24.90
2018-06-18T11:59:11.181Z,24.72
2018-06-18T12:01:44.739Z,24.99
2018-06-18T12:04:18.190Z,25.09
2018-06-18T12:06:51.586Z,25.18
2018-06-18T12:09:27.080Z,25.01
2018-06-18T12:11:55.383Z,24.87
2018-06-18T12:14:23.401Z,24.63
2018-06-18T12:16:51.489Z,24.44
2018-06-18T12:19:19.517Z,24.40
2018-06-18T12:21:47.529Z,24.37
2018-06-18T12:24:15.668Z,24.03
2018-06-18T12:26:43.781Z,24.13
2018-06-18T12:29:11.810Z,24.01
2018-06-18T12:31:39.848Z,24.12
2018-06-18T12:34:07.895Z,24.11
2018-06-18T12:36:35.885Z,24.19
2018-06-18T12:39:05.600Z,24.40
2018-06-18T12:41:33.640Z,24.62
2018-06-18T12:44:01.718Z,24.74
2018-06-18T12:46:35.156Z,24.79
2018-06-18T12:49:09.312Z,25.08
2018-06-18T12:51:42.639Z,25.35
2018-06-18T12:54:15.949Z,25.38
2018-06-18T12:56:49.313Z,25.42
2018-06-18T12:59:17.341Z,25.34
2018-06-18T13:01:49.465Z,25.71
2018-06-18T13:04:17.547Z,25.72
2018-06-18T13:06:45.544Z,25.84
2018-06-18T13:09:14.491Z,25.85
2018-06-18T13:11:42.537Z,25.73
2018-06-18T13:14:10.497Z,25.36
2018-06-18T13:16:38.501Z,25.53
2018-06-18T13:19:06.538Z,25.82
2018-06-18T13:21:34.532Z,26.14
2018-06-18T13:24:02.559Z,25.90
2018-06-18T13:26:30.596Z,25.53
2018-06-18T13:28:58.593Z,25.24
2018-06-18T13:31:26.600Z,24.98
2018-06-18T13:33:54.617Z,24.59
2018-06-18T13:36:22.635Z,24.64
2018-06-18T13:38:56.077Z,24.53
2018-06-18T13:41:29.635Z,24.74
2018-06-18T13:44:03.096Z,24.66
2018-06-18T13:46:36.469Z,24.38
2018-06-18T13:49:04.533Z,24.42
2018-06-18T13:51:32.546Z,24.45
2018-06-18T13:54:00.581Z,24.37
2018-06-18T13:56:28.608Z,24.42
2018-06-18T13:58:56.676Z,24.35
2018-06-18T14:01:24.677Z,24.10
2018-06-18T14:03:52.685Z,24.12
2018-06-18T14:06:20.713Z,23.73
2018-06-18T14:08:48.727Z,23.86
2018-06-18T14:11:16.741Z,23.89
2018-06-18T14:13:44.983Z,24.17
2018-06-18T14:16:13.993Z,24.32
2018-06-18T14:18:42.022Z,24.29
2018-06-18T14:21:10.121Z,24.33
2018-06-18T14:23:38.701Z,24.52
2018-06-18T14:26:06.856Z,24.66
2018-06-18T14:28:34.897Z,24.64
2018-06-18T14:31:08.281Z,24.82
2018-06-18T14:33:41.820Z,24.88
2018-06-18T14:36:15.404Z,25.25
2018-06-18T14:38:48.916Z,25.46
2018-06-18T14:41:16.935Z,25.25
2018-06-18T14:43:45.008Z,25.43
2018-06-18T14:46:13.109Z,25.50
2018-06-18T14:48:41.324Z,25.37
2018-06-18T14:51:09.364Z,25.25
2018-06-18T14:53:37.420Z,25.12
2018-06-18T14:56:16.733Z,24.95
2018-06-18T14:58:51.698Z,24.61
2018-06-18T15:01:19.695Z,24.47
2018-06-18T15:03:47.776Z,24.23
2018-06-18T15:06:15.827Z,24.00
2018-06-18T15:08:43.843Z,23.98
2018-06-18T15:11:11.844Z,23.88
2018-06-18T15:13:39.975Z,24.01
2018-06-18T15:16:13.295Z,24.15
2018-06-18T15:18:41.304Z,24.14
2018-06-18T15:21:09.411Z,24.12
2018-06-18T15:23:37.378Z,24.02
2018-06-18T15:26:05.758Z,24.23
2018-06-18T15:28:33.747Z,24.19
2018-06-18T15:31:01.739Z,24.38
2018-06-18T15:33:29.758Z,24.38
2018-06-18T15:35:57.816Z,24.60
2018-06-18T15:38:25.935Z,24.43
2018-06-18T15:40:54.007Z,24.58
2018-06-18T15:43:22.020Z,24.54
2018-06-18T15:45:50.125Z,24.54
2018-06-18T15:48:18.164Z,24.61
2018-06-18T15:50:46.372Z,24.25
2018-06-18T15:53:14.386Z,24.09
2018-06-18T15:55:42.398Z,24.25
2018-06-18T15:58:10.496Z,24.30
2018-06-18T16:00:38.510Z,24.47
2018-06-18T16:03:06.551Z,24.33
2018-06-18T16:05:34.596Z,23.96
2018-06-18T16:08:02.721Z,23.95
2018-06-18T16:10:30.740Z,24.02
2018-06-18T16:12:58.786Z,23.92
2018-06-18T16:15:26.798Z,23.98
2018-06-18T16:17:54.828Z,23.96
2018-06-18T16:20:22.840Z,24.03
2018-06-18T16:22:50.896Z,24.07
2018-06-18T16:25:18.926Z,23.82
2018-06-18T16:27:46.933Z,23.60
2018-06-18T16:30:16.034Z,23.31
2018-06-18T16:32:44.033Z,23.08
2018-06-18T16:35:12.282Z,22.90
2018-06-18T16:37:40.323Z,22.77
2018-06-18T16:40:08.332Z,22.71
2018-06-18T16:42:36.362Z,22.62
2018-06-18T16:45:04.449Z,22.58
2018-06-18T16:47:32.481Z,22.54
2018-06-18T16:50:00.501Z,22.87
2018-06-18T16:52:28.556Z,22.99
2018-06-18T16:54:56.652Z,22.89
2018-06-18T16:57:25.753Z,23.04
2018-06-18T16:59:53.749Z,23.01
2018-06-18T17:02:21.773Z,22.81
2018-06-18T17:04:49.876Z,22.82
2018-06-18T17:07:17.908Z,22.83
2018-06-18T17:09:45.899Z,22.84
2018-06-18T17:12:13.921Z,22.69
2018-06-18T17:14:42.020Z,22.67
2018-06-18T17:17:10.034Z,22.44
2018-06-18T17:19:38.115Z,22.64
2018-06-18T17:22:06.245Z,22.75
2018-06-18T17:24:34.284Z,22.72
2018-06-18T17:27:02.311Z,22.61
2018-06-18T17:29:30.318Z,22.46
2018-06-18T17:31:58.316Z,22.47
2018-06-18T17:34:26.439Z,22.46
2018-06-18T17:36:54.452Z,22.35
2018-06-18T17:39:22.508Z,22.21
2018-06-18T17:41:50.677Z,22.25
2018-06-18T17:44:18.714Z,22.07
2018-06-18T17:46:46.766Z,22.03
2018-06-18T17:49:14.975Z,22.09
2018-06-18T17:51:42.940Z,22.06
2018-06-18T17:54:10.956Z,22.03
2018-06-18T17:56:38.969Z,21.83
2018-06-18T17:59:07.030Z,21.93
2018-06-18T18:01:35.013Z,21.81
2018-06-18T18:04:03.017Z,21.88
2018-06-18T18:06:31.042Z,21.81
2018-06-18T18:08:59.056Z,21.91
2018-06-18T18:11:27.110Z,21.96
2018-06-18T18:13:55.133Z,21.90
2018-06-18T18:16:23.136Z,21.87
2018-06-18T18:18:51.145Z,22.01
2018-06-18T18:21:19.128Z,21.74
2018-06-18T18:23:47.127Z,21.75
2018-06-18T18:26:15.132Z,21.68
2018-06-18T18:28:43.255Z,21.57
2018-06-18T18:31:11.197Z,21.65
2018-06-18T18:33:39.216Z,21.63
2018-06-18T18:36:07.276Z,21.42
2018-06-18T18:38:35.292Z,21.51
2018-06-18T18:41:03.330Z,21.23
2018-06-18T18:43:31.300Z,21.22
2018-06-18T18:45:59.286Z,20.98
2018-06-18T18:48:27.326Z,21.04
2018-06-18T18:50:55.338Z,21.08
2018-06-18T18:53:23.485Z,21.24
2018-06-18T18:56:06.104Z,21.26
2018-06-18T18:59:41.097Z,21.35
2018-06-18T19:02:09.149Z,21.21
2018-06-18T19:04:44.656Z,21.28
2018-06-18T19:07:12.848Z,21.38
2018-06-18T19:09:46.106Z,21.45
2018-06-18T19:12:14.063Z,21.47
2018-06-18T19:14:42.078Z,21.57
2018-06-18T19:17:10.080Z,21.56
2018-06-18T19:19:44.952Z,21.55
2018-06-18T19:22:13.348Z,21.69
2018-06-18T19:24:41.547Z,21.48
2018-06-18T19:27:09.537Z,21.49
2018-06-18T19:29:37.561Z,21.67
2018-06-18T19:32:05.932Z,21.49
2018-06-18T19:34:34.269Z,21.58
2018-06-18T19:37:02.290Z,21.35
2018-06-18T19:39:32.738Z,21.36
2018-06-18T19:42:00.771Z,21.27
2018-06-18T19:44:28.798Z,21.39
2018-06-18T19:48:11.188Z,21.22
2018-06-18T19:50:39.411Z,21.14
2018-06-18T19:53:07.657Z,21.17
2018-06-18T19:55:35.634Z,20.90
2018-06-18T19:58:03.679Z,20.92
2018-06-18T20:00:35.795Z,20.99
2018-06-18T20:03:03.776Z,20.92
2018-06-18T20:05:31.776Z,20.95
2018-06-18T20:08:01.973Z,20.77
2018-06-18T20:10:29.976Z,20.84
2018-06-18T20:12:57.996Z,20.91
2018-06-18T20:15:26.445Z,20.92
2018-06-18T20:17:54.481Z,20.87
2018-06-18T20:20:22.617Z,20.85
2018-06-18T20:22:50.717Z,20.75
2018-06-18T20:25:21.685Z,20.82
2018-06-18T20:27:49.661Z,20.60
2018-06-18T20:30:17.664Z,20.60
2018-06-18T20:32:45.685Z,20.52
2018-06-18T20:35:23.186Z,20.34
2018-06-18T20:37:51.282Z,20.35
2018-06-18T20:40:19.252Z,20.42
2018-06-18T20:42:47.257Z,20.36
2018-06-18T20:45:15.281Z,20.22
2018-06-18T20:47:43.312Z,20.14
2018-06-18T20:50:11.430Z,20.13
2018-06-18T20:52:39.441Z,20.18
2018-06-18T20:55:07.445Z,20.11
2018-06-18T20:57:35.480Z,20.19
2018-06-18T21:00:04.959Z,20.10
2018-06-18T21:02:33.025Z,20.14
2018-06-18T21:05:01.172Z,20.14
2018-06-18T21:07:29.353Z,20.21
2018-06-18T21:09:57.357Z,20.25
2018-06-18T21:12:25.416Z,20.31
2018-06-18T21:14:53.437Z,20.27
2018-06-18T21:17:21.496Z,20.29
2018-06-18T21:19:49.726Z,20.29
2018-06-18T21:22:17.741Z,20.19
2018-06-18T21:24:45.790Z,20.23
2018-06-18T21:27:13.797Z,20.26
2018-06-18T21:29:41.900Z,20.16
2018-06-18T21:32:09.903Z,20.08
2018-06-18T21:34:37.904Z,20.06
2018-06-18T21:37:05.900Z,20.03
2018-06-18T21:39:34.984Z,20.00
2018-06-18T21:42:02.989Z,20.12
2018-06-18T21:44:34.793Z,20.15
2018-06-18T21:47:02.841Z,20.14
2018-06-18T21:49:30.852Z,20.18
2018-06-18T21:51:58.948Z,20.18
2018-06-18T21:54:26.937Z,20.20
2018-06-18T21:56:54.925Z,20.12
2018-06-18T21:59:23.018Z,20.08
2018-06-18T22:01:51.033Z,20.14
2018-06-18T22:04:19.032Z,19.95
2018-06-18T22:06:47.080Z,19.76
2018-06-18T22:09:18.171Z,19.82
2018-06-18T22:11:48.666Z,19.86
2018-06-18T22:14:16.705Z,19.89
2018-06-18T22:16:44.764Z,19.70
2018-06-18T22:19:12.714Z,19.82
2018-06-18T22:21:40.817Z,19.77
2018-06-18T22:24:08.805Z,19.80
2018-06-18T22:26:37.156Z,19.70
2018-06-18T22:29:05.465Z,19.80
2018-06-18T22:31:33.510Z,19.69
2018-06-18T22:34:01.507Z,19.64
2018-06-18T22:36:29.560Z,19.64
2018-06-18T22:38:58.623Z,19.72
2018-06-18T22:41:26.656Z,19.59
2018-06-18T22:43:54.653Z,19.63
2018-06-18T22:46:22.756Z,19.59
2018-06-18T22:48:50.759Z,19.49
2018-06-18T22:51:18.789Z,19.52
2018-06-18T22:53:46.817Z,19.51
2018-06-18T22:56:14.829Z,19.56
2018-06-18T22:58:42.812Z,19.49
2018-06-18T23:01:10.899Z,19.49
2018-06-18T23:03:39.108Z,19.16
2018-06-18T23:06:07.124Z,19.18
2018-06-18T23:08:35.148Z,19.00
2018-06-18T23:11:03.177Z,19.09
2018-06-18T23:13:33.368Z,18.91
2018-06-18T23:16:02.621Z,18.95
2018-06-18T23:18:30.629Z,18.76
2018-06-18T23:20:58.636Z,18.62
2018-06-18T23:23:26.804Z,18.67
2018-06-18T23:25:54.845Z,18.68
2018-06-18T23:28:26.758Z,18.71
2018-06-18T23:30:54.761Z,18.60
2018-06-18T23:33:22.770Z,18.76
2018-06-18T23:35:50.773Z,18.80
2018-06-18T23:38:18.800Z,18.85
2018-06-18T23:40:46.824Z,18.75
2018-06-18T23:43:14.831Z,18.81
2018-06-18T23:45:42.852Z,18.74
2018-06-18T23:48:10.845Z,18.74
2018-06-18T23:50:38.849Z,18.85
2018-06-18T23:53:06.883Z,18.85
2018-06-18T23:55:34.876Z,18.91
2018-06-18T23:58:02.889Z,18.91
